Time;durP1;ratioP1;P1;durP2;ratioP2;P2;SDS_P1;SDS_P2;PMS_P1;PMS_P2;Temp;Humidity;BMP_temperature;BMP_pressure;BME280_temperature;BME280_humidity;BME280_pressure;Samples;Min_cycle;Max_cycle;Signal;HPM_P1;HPM_P2
2023/08/22 00:01:04;;;;;;;1999.90;999.90;;;;;;;26.25;100.00;95764.91;5066852;28;20232;-60
2023/08/22 00:03:30;;;;;;;1999.90;999.90;;;;;;;26.25;100.00;95764.91;5067299;28;20395;-60
2023/08/22 00:05:56;;;;;;;1999.90;999.90;;;;;;;26.25;100.00;95764.91;5066947;28;20178;-60
2023/08/22 00:08:21;;;;;;;1999.90;999.90;;;;;;;26.25;100.00;95764.91;5067002;28;20174;-60
2023/08/22 00:10:46;;;;;;;1999.90;999.90;;;;;;;26.25;100.00;95764.91;5066984;28;20190;-60
2023/08/22 00:13:12;;;;;;;1999.90;999.90;;;;;;;26.25;100.00;95764.91;5067640;28;20174;-61
2023/08/22 00:15:37;;;;;;;1999.90;999.90;;;;;;;26.25;100.00;95764.91;5066772;28;20243;-61
2023/08/22 00:18:03;;;;;;;1999.90;999.90;;;;;;;26.25;100.00;95764.91;5066754;28;20178;-60
2023/08/22 00:20:28;;;;;;;1999.90;999.90;;;;;;;26.25;100.00;95764.91;5067442;28;20462;-60
2023/08/22 00:22:53;;;;;;;1999.90;999.90;;;;;;;26.25;100.00;95764.91;5067181;28;20389;-61
2023/08/22 00:25:19;;;;;;;1999.90;999.90;;;;;;;26.25;100.00;95764.91;5066752;28;20174;-60
2023/08/22 00:27:44;;;;;;;1999.90;999.90;;;;;;;26.25;100.00;95764.91;5067167;28;20178;-60
2023/08/22 00:30:10;;;;;;;1999.90;999.90;;;;;;;26.25;100.00;95764.91;5066576;28;20437;-60
2023/08/22 00:32:35;;;;;;;1999.90;999.90;;;;;;;26.25;100.00;95764.91;5066176;28;20197;-60
2023/08/22 00:35:01;;;;;;;1999.90;999.90;;;;;;;26.25;100.00;95764.91;5066209;28;20178;-60
2023/08/22 00:37:27;;;;;;;1999.90;999.90;;;;;;;26.25;100.00;95764.91;5066505;28;20475;-60
2023/08/22 00:39:54;;;;;;;1999.90;999.90;;;;;;;26.25;100.00;95764.91;5067122;28;20348;-61
2023/08/22 00:42:19;;;;;;;1999.90;999.90;;;;;;;26.25;100.00;95764.91;5066301;28;20278;-61
2023/08/22 00:44:45;;;;;;;1999.90;999.90;;;;;;;26.25;100.00;95764.91;5066221;28;20197;-60
2023/08/22 00:47:10;;;;;;;1999.90;999.90;;;;;;;26.25;100.00;95764.91;5066513;28;20178;-60
2023/08/22 00:49:36;;;;;;;1999.90;999.90;;;;;;;26.25;100.00;95764.91;5066186;28;20173;-60
2023/08/22 00:52:03;;;;;;;1999.90;999.90;;;;;;;26.25;100.00;95764.91;5066597;28;20400;-60
2023/08/22 00:54:30;;;;;;;1999.90;999.90;;;;;;;26.25;100.00;95764.91;5066513;28;20316;-60
2023/08/22 00:56:55;;;;;;;1999.90;999.90;;;;;;;26.25;100.00;95764.91;5065982;28;20174;-61
2023/08/22 00:59:22;;;;;;;1999.90;999.90;;;;;;;26.25;100.00;95764.91;5066383;28;20523;-60
2023/08/22 01:01:48;;;;;;;1999.90;999.90;;;;;;;26.25;100.00;95764.91;5066199;28;20198;-60
2023/08/22 01:04:13;;;;;;;1999.90;999.90;;;;;;;26.25;100.00;95764.91;5066402;28;20234;-61
2023/08/22 01:06:47;;;;;;;1999.90;999.90;;;;;;;26.25;100.00;95764.91;5066065;28;20177;-60
2023/08/22 01:09:32;;;;;;;1999.90;999.90;;;;;;;26.25;100.00;95764.91;5066396;28;20196;-61
2023/08/22 01:12:09;;;;;;;1999.90;999.90;;;;;;;26.25;100.00;95764.91;5065970;28;20181;-60
2023/08/22 01:14:41;;;;;;;1999.90;999.90;;;;;;;26.25;100.00;95764.91;5066268;28;20239;-60
2023/08/22 01:17:07;;;;;;;1999.90;999.90;;;;;;;26.25;100.00;95764.91;5066190;28;20192;-60
2023/08/22 01:19:32;;;;;;;1999.90;999.90;;;;;;;26.25;100.00;95764.91;5065671;28;20175;-61
2023/08/22 01:21:58;;;;;;;1999.90;999.90;;;;;;;26.25;100.00;95764.91;5065515;28;20201;-60
2023/08/22 01:24:23;;;;;;;1999.90;999.90;;;;;;;26.25;100.00;95764.91;5065810;28;20241;-60
2023/08/22 01:26:49;;;;;;;1999.90;999.90;;;;;;;26.25;100.00;95764.91;5065423;28;20224;-60
2023/08/22 01:29:20;;;;;;;1999.90;999.90;;;;;;;26.25;100.00;95764.91;5066302;28;20343;-61
2023/08/22 01:31:53;;;;;;;1999.90;999.90;;;;;;;26.25;100.00;95764.91;5065882;28;20170;-60
2023/08/22 01:34:35;;;;;;;1999.90;999.90;;;;;;;26.25;100.00;95764.91;5065635;28;20192;-60
2023/08/22 01:37:02;;;;;;;1999.90;999.90;;;;;;;26.25;100.00;95764.91;5065246;28;20173;-60
2023/08/22 01:39:29;;;;;;;1999.90;999.90;;;;;;;26.25;100.00;95764.91;5065223;28;20214;-60
2023/08/22 01:41:56;;;;;;;1999.90;999.90;;;;;;;26.25;100.00;95764.91;5065043;28;20202;-61
2023/08/22 01:44:22;;;;;;;1999.90;999.90;;;;;;;26.25;100.00;95764.91;5065141;28;20244;-60
2023/08/22 01:46:47;;;;;;;1999.90;999.90;;;;;;;26.25;100.00;95764.91;5065084;28;20370;-60
2023/08/22 01:49:13;;;;;;;1999.90;999.90;;;;;;;26.25;100.00;95764.91;5065049;28;20170;-61
2023/08/22 01:51:38;;;;;;;1999.90;999.90;;;;;;;26.25;100.00;95764.91;5064976;28;20177;-60
2023/08/22 01:54:04;;;;;;;1999.90;999.90;;;;;;;26.25;100.00;95764.91;5065537;28;20236;-60
2023/08/22 01:56:30;;;;;;;1999.90;999.90;;;;;;;26.25;100.00;95764.91;5064911;28;20170;-60
2023/08/22 01:58:55;;;;;;;1999.90;999.90;;;;;;;26.25;100.00;95764.91;5065489;28;20493;-62
2023/08/22 02:01:22;;;;;;;1999.90;999.90;;;;;;;26.25;100.00;95764.91;5065257;28;20205;-60
2023/08/22 02:03:47;;;;;;;1999.90;999.90;;;;;;;26.25;100.00;95764.91;5064855;28;20428;-60
2023/08/22 02:06:13;;;;;;;1999.90;999.90;;;;;;;26.25;100.00;95764.91;5065255;28;20170;-61
2023/08/22 02:08:39;;;;;;;1999.90;999.90;;;;;;;26.25;100.00;95764.91;5065041;28;20173;-60
2023/08/22 02:11:05;;;;;;;1999.90;999.90;;;;;;;26.25;100.00;95764.91;5064721;28;20166;-61
2023/08/22 02:13:31;;;;;;;1999.90;999.90;;;;;;;26.25;100.00;95764.91;5065093;28;20236;-60
2023/08/22 02:15:56;;;;;;;1999.90;999.90;;;;;;;26.25;100.00;95764.91;5065034;28;20173;-60
2023/08/22 02:18:21;;;;;;;1999.90;999.90;;;;;;;26.25;100.00;95764.91;5064558;28;20376;-61
2023/08/22 02:20:51;;;;;;;1999.90;999.90;;;;;;;22.63;100.00;95622.13;5064345;28;20205;-61
2023/08/22 02:23:17;;;;;;;1999.90;999.90;;;;;;;22.63;100.00;95622.13;5063680;28;20201;-61
2023/08/22 02:25:42;;;;;;;1999.90;999.90;;;;;;;22.54;100.00;95617.41;5064879;28;20173;-61
2023/08/22 02:28:07;;;;;;;1999.90;999.90;;;;;;;22.52;100.00;95608.00;5064376;28;20178;-61
2023/08/22 02:30:33;;;;;;;1999.90;999.90;;;;;;;22.52;100.00;95603.94;5064279;28;20184;-60
2023/08/22 02:32:59;;;;;;;1999.90;999.90;;;;;;;22.52;100.00;95608.00;5065069;28;20212;-60
2023/08/22 02:35:24;;;;;;;1999.90;999.90;;;;;;;22.52;100.00;95608.00;5064717;28;20174;-60
2023/08/22 02:37:50;;;;;;;1999.90;999.90;;;;;;;22.44;100.00;95605.53;5064171;28;20204;-60
2023/08/22 02:40:15;;;;;;;1999.90;999.90;;;;;;;22.41;100.00;95600.91;5064291;28;20249;-60
2023/08/22 02:42:41;;;;;;;1999.90;999.90;;;;;;;22.34;100.00;95587.38;5064016;28;20234;-60
2023/08/22 02:45:06;;;;;;;1999.90;999.90;;;;;;;22.30;100.00;95583.97;5064072;28;20177;-60
2023/08/22 02:47:32;;;;;;;1999.90;999.90;;;;;;;22.28;100.00;95586.47;5063991;28;20170;-60
2023/08/22 02:50:00;;;;;;;1999.90;999.90;;;;;;;22.28;100.00;95586.47;5064156;28;20467;-61
2023/08/22 02:52:25;;;;;;;1999.90;999.90;;;;;;;22.28;100.00;95586.47;5064139;28;20238;-60
2023/08/22 02:54:52;;;;;;;1999.90;999.90;;;;;;;22.28;100.00;95586.47;5064564;28;20447;-60
2023/08/22 02:57:17;;;;;;;1999.90;999.90;;;;;;;22.28;100.00;95586.47;5064394;28;20181;-60
2023/08/22 02:59:43;;;;;;;1999.90;999.90;;;;;;;22.28;100.00;95586.47;5063905;28;20213;-60
2023/08/22 03:02:08;;;;;;;1999.90;999.90;;;;;;;22.28;100.00;95586.47;5063830;28;20198;-60
2023/08/22 03:04:36;;;;;;;1999.90;999.90;;;;;;;22.28;100.00;95586.47;5064030;28;20169;-60
2023/08/22 03:07:02;;;;;;;1999.90;999.90;;;;;;;22.28;100.00;95586.47;5063479;28;20208;-60
2023/08/22 03:09:29;;;;;;;1999.90;999.90;;;;;;;22.28;100.00;95586.47;5063394;28;20166;-61
2023/08/22 03:11:54;;;;;;;1999.90;999.90;;;;;;;22.28;100.00;95586.47;5063693;28;20173;-61
2023/08/22 03:14:20;;;;;;;1999.90;999.90;;;;;;;22.28;100.00;95586.47;5063842;28;20220;-60
2023/08/22 03:16:45;;;;;;;1999.90;999.90;;;;;;;22.28;100.00;95586.47;5064005;28;20216;-61
2023/08/22 03:19:10;;;;;;;1999.90;999.90;;;;;;;22.28;100.00;95586.47;5064067;28;20170;-61
2023/08/22 03:21:36;;;;;;;1999.90;999.90;;;;;;;22.28;100.00;95586.47;5063523;28;20201;-61
2023/08/22 03:24:01;;;;;;;1999.90;999.90;;;;;;;22.28;100.00;95586.47;5063576;28;20249;-63
2023/08/22 03:26:26;;;;;;;1999.90;999.90;;;;;;;22.28;100.00;95586.47;5063903;28;20195;-60
2023/08/22 03:28:51;;;;;;;1999.90;999.90;;;;;;;22.28;100.00;95586.47;5063546;28;20169;-61
2023/08/22 03:31:17;;;;;;;1999.90;999.90;;;;;;;22.28;100.00;95586.47;5063544;28;20220;-61
2023/08/22 03:33:42;;;;;;;1999.90;999.90;;;;;;;22.28;100.00;95586.47;5064968;28;20177;-60
2023/08/22 03:36:08;;;;;;;1999.90;999.90;;;;;;;22.28;100.00;95586.47;5067554;28;20174;-60
2023/08/22 03:38:33;;;;;;;1999.90;999.90;;;;;;;22.28;100.00;95586.47;5067561;28;20166;-60
2023/08/22 03:40:59;;;;;;;1999.90;999.90;;;;;;;22.28;100.00;95586.47;5067175;28;20205;-60
2023/08/22 03:43:24;;;;;;;1999.90;999.90;;;;;;;22.28;100.00;95586.47;5067386;28;20196;-60
2023/08/22 03:45:49;;;;;;;1999.90;999.90;;;;;;;22.28;100.00;95586.47;5067419;28;20169;-61
2023/08/22 03:48:15;;;;;;;1999.90;999.90;;;;;;;22.28;100.00;95586.47;5068076;28;20489;-60
2023/08/22 03:50:42;;;;;;;1999.90;999.90;;;;;;;22.28;100.00;95586.47;5067345;28;20185;-61
2023/08/22 03:53:08;;;;;;;1999.90;999.90;;;;;;;22.28;100.00;95586.47;5067229;28;20181;-60
2023/08/22 03:55:34;;;;;;;1999.90;999.90;;;;;;;22.28;100.00;95586.47;5067273;28;20177;-60
2023/08/22 03:57:59;;;;;;;1999.90;999.90;;;;;;;22.28;100.00;95586.47;5067167;28;20170;-61
2023/08/22 04:00:26;;;;;;;1999.90;999.90;;;;;;;22.28;100.00;95586.47;5067028;28;20263;-60
2023/08/22 04:02:58;;;;;;;1999.90;999.90;;;;;;;22.28;100.00;95586.47;5067050;28;20170;-60
2023/08/22 04:05:25;;;;;;;1999.90;999.90;;;;;;;22.28;100.00;95586.47;5067484;28;20166;-60
2023/08/22 04:07:51;;;;;;;1999.90;999.90;;;;;;;22.28;100.00;95586.47;5066944;28;20170;-60
2023/08/22 04:10:17;;;;;;;1999.90;999.90;;;;;;;22.28;100.00;95586.47;5066999;28;20173;-60
2023/08/22 04:12:43;;;;;;;1999.90;999.90;;;;;;;22.28;100.00;95586.47;5067159;28;20177;-60
2023/08/22 04:15:10;;;;;;;1999.90;999.90;;;;;;;22.28;100.00;95586.47;5066978;28;20166;-60
2023/08/22 04:17:35;;;;;;;1999.90;999.90;;;;;;;22.28;100.00;95586.47;5066792;28;20193;-60
2023/08/22 04:20:02;;;;;;;1999.90;999.90;;;;;;;22.28;100.00;95586.47;5067425;28;20173;-60
2023/08/22 04:22:30;;;;;;;1999.90;999.90;;;;;;;22.28;100.00;95586.47;5067184;28;20227;-60
2023/08/22 04:24:56;;;;;;;1999.90;999.90;;;;;;;21.41;100.00;95597.09;5066622;28;20174;-60
2023/08/22 04:27:21;;;;;;;1999.90;999.90;;;;;;;21.41;100.00;95597.09;5067133;28;20166;-60
2023/08/22 04:29:46;;;;;;;1999.90;999.90;;;;;;;21.41;100.00;95597.09;5067117;28;20340;-60
2023/08/22 04:32:12;;;;;;;1999.90;999.90;;;;;;;21.41;100.00;95597.09;5066702;28;20170;-59
2023/08/22 04:34:37;;;;;;;1999.90;999.90;;;;;;;21.41;100.00;95597.09;5066445;28;20248;-60
2023/08/22 04:37:03;;;;;;;1999.90;999.90;;;;;;;21.41;100.00;95597.09;5066387;28;20170;-60
2023/08/22 04:39:28;;;;;;;1999.90;999.90;;;;;;;21.41;100.00;95597.09;5066374;28;20166;-59
2023/08/22 04:41:53;;;;;;;1999.90;999.90;;;;;;;21.41;100.00;95597.09;5066255;28;20263;-60
2023/08/22 04:44:19;;;;;;;1999.90;999.90;;;;;;;21.41;100.00;95597.09;5065863;28;20217;-60
2023/08/22 04:46:44;;;;;;;1999.90;999.90;;;;;;;21.41;100.00;95597.09;5066248;28;20162;-60
2023/08/22 04:49:10;;;;;;;1999.90;999.90;;;;;;;21.41;100.00;95597.09;5066714;28;20493;-59
2023/08/22 04:51:35;;;;;;;1999.90;999.90;;;;;;;21.41;100.00;95597.09;5066441;28;20350;-59
2023/08/22 04:54:00;;;;;;;1999.90;999.90;;;;;;;21.41;100.00;95597.09;5066636;28;20170;-60
2023/08/22 04:56:26;;;;;;;1999.90;999.90;;;;;;;21.41;100.00;95597.09;5065963;28;20173;-59
2023/08/22 04:58:52;;;;;;;1999.90;999.90;;;;;;;24.11;100.00;95643.59;5066801;28;20173;-59
2023/08/22 05:01:17;;;;;;;1999.90;999.90;;;;;;;24.64;100.00;95646.88;5065978;28;20225;-59
2023/08/22 05:03:43;;;;;;;1999.90;999.90;;;;;;;25.03;100.00;95645.31;5065886;28;20166;-60
2023/08/22 05:06:08;;;;;;;1999.90;999.90;;;;;;;25.42;100.00;95647.28;5065871;28;20161;-60
2023/08/22 05:08:33;;;;;;;1999.90;999.90;;;;;;;25.81;100.00;95642.03;5066451;28;20253;-59
2023/08/22 05:10:59;;;;;;;1999.90;999.90;;;;;;;26.20;100.00;95639.56;5066333;28;20169;-60
2023/08/22 05:13:24;;;;;;;1999.90;999.90;;;;;;;26.33;100.00;95645.50;5066587;28;20166;-60
2023/08/22 05:15:49;;;;;;;1999.90;999.90;;;;;;;26.53;100.00;95648.94;5066277;28;20173;-60
2023/08/22 05:18:15;;;;;;;1999.90;999.90;;;;;;;26.97;100.00;95640.75;5066133;28;20177;-59
2023/08/22 05:20:41;;;;;;;1999.90;999.90;;;;;;;27.40;100.00;95639.38;5065562;28;20269;-60
2023/08/22 05:23:06;;;;;;;1999.90;999.90;;;;;;;27.63;100.00;95643.75;5066185;28;20245;-59
2023/08/22 05:25:31;;;;;;;1999.90;999.90;;;;;;;28.04;100.00;95644.03;5065604;28;20196;-59
2023/08/22 05:27:57;;;;;;;1999.90;999.90;;;;;;;28.57;100.00;95648.56;5066014;28;20166;-60
2023/08/22 05:30:22;;;;;;;1999.90;999.90;;;;;;;28.74;100.00;95646.50;5065414;28;20272;-60
2023/08/22 05:32:47;;;;;;;1999.90;999.90;;;;;;;28.95;100.00;95640.00;5066185;28;20216;-61
2023/08/22 05:35:13;;;;;;;1999.90;999.90;;;;;;;29.23;100.00;95648.34;5065904;28;20176;-61
2023/08/22 05:37:38;;;;;;;1999.90;999.90;;;;;;;29.39;100.00;95650.34;5065553;28;20166;-61
2023/08/22 05:40:06;;;;;;;1999.90;999.90;;;;;;;29.55;100.00;95658.69;5065787;28;20177;-60
2023/08/22 05:42:32;;;;;;;1999.90;999.90;;;;;;;29.62;100.00;95660.19;5065675;28;20213;-60
2023/08/22 05:44:57;;;;;;;1999.90;999.90;;;;;;;29.91;100.00;95656.66;5065214;28;20169;-60
2023/08/22 05:47:22;;;;;;;1999.90;999.90;;;;;;;30.11;100.00;95657.00;5065136;28;20173;-60
2023/08/22 05:49:48;;;;;;;1999.90;999.90;;;;;;;30.61;100.00;95653.72;5064969;28;20165;-61
2023/08/22 05:52:13;;;;;;;1999.90;999.90;;;;;;;30.74;100.00;95653.91;5064964;28;20188;-61
2023/08/22 05:54:38;;;;;;;1999.90;999.90;;;;;;;31.05;100.00;95656.84;5065475;28;20237;-61
2023/08/22 05:57:04;;;;;;;1999.90;999.90;;;;;;;31.40;100.00;95647.44;5065315;28;20166;-61
2023/08/22 05:59:29;;;;;;;1999.90;999.90;;;;;;;31.54;100.00;95646.22;5064733;28;20213;-60
2023/08/22 06:01:54;;;;;;;1999.90;999.90;;;;;;;32.17;100.00;95646.28;5065101;28;20212;-61
2023/08/22 06:04:20;;;;;;;1999.90;999.90;;;;;;;32.31;100.00;95653.53;5065276;28;20165;-60
2023/08/22 06:06:46;;;;;;;1999.90;999.90;;;;;;;32.65;100.00;95657.28;5064595;28;20166;-61
2023/08/22 06:09:11;;;;;;;1999.90;999.90;;;;;;;33.01;100.00;95664.09;5065376;28;20173;-61
2023/08/22 06:11:37;;;;;;;1999.90;999.90;;;;;;;33.30;100.00;95660.16;5065092;28;20161;-64
2023/08/22 06:14:04;;;;;;;1999.90;999.90;;;;;;;33.60;100.00;95674.72;5064607;28;20166;-61
2023/08/22 06:16:29;;;;;;;1999.90;999.90;;;;;;;34.02;99.50;95669.16;5064986;28;20161;-61
2023/08/22 06:18:54;;;;;;;1999.90;999.90;;;;;;;33.95;100.00;95678.34;5064464;28;20165;-62
2023/08/22 06:21:20;;;;;;;1999.90;999.90;;;;;;;34.32;96.57;95675.13;5064641;28;20217;-61
2023/08/22 06:23:45;;;;;;;1999.90;999.90;;;;;;;34.15;97.22;95683.28;5065052;28;20166;-62
2023/08/22 06:26:11;;;;;;;1999.90;999.90;;;;;;;34.52;96.70;95674.38;5064645;28;20166;-61
2023/08/22 06:28:36;;;;;;;1999.90;999.90;;;;;;;34.72;92.00;95671.53;5064200;28;20173;-61
2023/08/22 06:31:03;;;;;;;1999.90;999.90;;;;;;;35.06;89.43;95677.09;5064066;28;20233;-61
2023/08/22 06:33:28;;;;;;;1999.90;999.90;;;;;;;35.49;86.41;95675.09;5064050;28;20166;-61
2023/08/22 06:35:54;;;;;;;1999.90;999.90;;;;;;;35.82;85.05;95673.31;5064154;28;20173;-62
2023/08/22 06:38:19;;;;;;;1999.90;999.90;;;;;;;35.90;82.90;95669.19;5064419;28;20173;-61
2023/08/22 06:40:44;;;;;;;1999.90;999.90;;;;;;;35.92;82.77;95671.47;5063960;28;20212;-62
2023/08/22 06:43:10;;;;;;;1999.90;999.90;;;;;;;36.12;79.95;95679.13;5064156;28;20185;-61
2023/08/22 06:45:35;;;;;;;1999.90;999.90;;;;;;;36.67;80.86;95669.50;5064772;28;20162;-62
2023/08/22 06:48:00;;;;;;;1999.90;999.90;;;;;;;36.47;78.93;95669.69;5064407;28;20165;-62
2023/08/22 06:50:26;;;;;;;1999.90;999.90;;;;;;;37.70;71.63;95674.13;5064141;28;20162;-62
2023/08/22 06:52:51;;;;;;;1999.90;999.90;;;;;;;37.55;71.82;95673.38;5063777;28;20173;-62
2023/08/22 06:55:16;;;;;;;1999.90;999.90;;;;;;;37.73;71.45;95672.97;5064407;28;20165;-62
2023/08/22 06:57:42;;;;;;;1999.90;999.90;;;;;;;37.34;72.84;95667.19;5063876;28;20192;-63
2023/08/22 07:00:14;;;;;;;1999.90;999.90;;;;;;;37.62;69.94;95672.63;5063665;28;20222;-62
2023/08/22 07:02:45;;;;;;;1999.90;999.90;;;;;;;37.76;71.93;95677.50;5064485;28;20269;-63
2023/08/22 07:05:12;;;;;;;1999.90;999.90;;;;;;;38.62;65.17;95675.88;5063444;28;20174;-59
2023/08/22 07:07:38;;;;;;;1999.90;999.90;;;;;;;39.22;64.13;95678.97;5063128;28;20177;-59
2023/08/22 07:10:08;;;;;;;1999.90;999.90;;;;;;;39.07;63.65;95676.28;5063976;28;20170;-59
2023/08/22 07:12:34;;;;;;;1999.90;999.90;;;;;;;39.21;65.28;95674.63;5063524;28;20182;-59
2023/08/22 07:14:59;;;;;;;1999.90;999.90;;;;;;;39.52;63.30;95672.22;5063584;28;20177;-59
2023/08/22 07:17:24;;;;;;;1999.90;999.90;;;;;;;39.59;61.95;95673.47;5063760;28;20184;-62
2023/08/22 07:19:50;;;;;;;1999.90;999.90;;;;;;;39.19;64.21;95671.56;5064203;28;20173;-61
2023/08/22 07:22:15;;;;;;;1999.90;999.90;;;;;;;40.11;60.94;95681.41;5063300;28;20201;-62
2023/08/22 07:24:40;;;;;;;1999.90;999.90;;;;;;;40.41;59.36;95674.53;5063543;28;20174;-62
2023/08/22 07:27:09;;;;;;;1999.90;999.90;;;;;;;40.70;58.16;95669.66;5064259;28;20174;-61
2023/08/22 07:29:35;;;;;;;1999.90;999.90;;;;;;;40.83;58.80;95675.00;5064099;28;20169;-61
2023/08/22 07:32:00;;;;;;;1999.90;999.90;;;;;;;40.92;56.71;95662.78;5063563;28;20170;-61
2023/08/22 07:34:25;;;;;;;1999.90;999.90;;;;;;;41.31;56.45;95675.91;5063439;28;20189;-62
2023/08/22 07:36:54;;;;;;;1999.90;999.90;;;;;;;41.93;53.36;95672.03;5063446;28;20174;-62
2023/08/22 07:39:21;;;;;;;1999.90;999.90;;;;;;;40.86;54.17;95682.41;5063407;28;20185;-62
2023/08/22 07:41:46;;;;;;;1999.90;999.90;;;;;;;41.31;53.33;95688.13;5063747;28;20206;-62
2023/08/22 07:44:13;;;;;;;1999.90;999.90;;;;;;;40.42;54.73;95684.63;5063409;28;20190;-62
2023/08/22 07:46:38;;;;;;;1999.90;999.90;;;;;;;40.81;54.11;95680.56;5063577;28;20173;-61
2023/08/22 07:49:03;;;;;;;1999.90;999.90;;;;;;;41.19;53.25;95686.44;5063248;28;20174;-59
2023/08/22 07:51:29;;;;;;;1999.90;999.90;;;;;;;41.72;52.33;95686.22;5064065;28;20186;-59
2023/08/22 07:53:54;;;;;;;1999.90;999.90;;;;;;;43.01;47.90;95679.88;5063700;28;20166;-59
2023/08/22 07:56:19;;;;;;;1999.90;999.90;;;;;;;43.25;45.88;95684.44;5063333;28;20170;-59
2023/08/22 07:58:45;;;;;;;1999.90;999.90;;;;;;;43.37;45.26;95685.28;5063139;28;20172;-59
2023/08/22 08:01:10;;;;;;;1999.90;999.90;;;;;;;43.93;43.61;95686.25;5063585;28;20226;-59
2023/08/22 08:03:35;;;;;;;1999.90;999.90;;;;;;;43.98;42.53;95690.91;5063221;28;20166;-59
2023/08/22 08:06:01;;;;;;;1999.90;999.90;;;;;;;43.86;42.53;95687.22;5063176;28;20241;-59
2023/08/22 08:08:26;;;;;;;1999.90;999.90;;;;;;;44.09;42.17;95686.56;5063475;28;20193;-59
2023/08/22 08:10:52;;;;;;;1999.90;999.90;;;;;;;44.14;41.77;95682.56;5063121;28;20174;-59
2023/08/22 08:13:17;;;;;;;1999.90;999.90;;;;;;;44.26;41.60;95689.91;5063569;28;20177;-58
2023/08/22 08:15:42;;;;;;;1999.90;999.90;;;;;;;43.72;41.94;95692.03;5063508;28;20191;-60
2023/08/22 08:18:10;;;;;;;1999.90;999.90;;;;;;;42.23;46.58;95691.47;5063095;28;20212;-59
2023/08/22 08:20:36;;;;;;;1999.90;999.90;;;;;;;42.45;46.46;95690.22;5064424;28;20193;-59
2023/08/22 08:23:01;;;;;;;1999.90;999.90;;;;;;;43.86;44.13;95687.22;5066984;28;20292;-60
2023/08/22 08:25:26;;;;;;;1999.90;999.90;;;;;;;44.42;41.54;95688.06;5066625;28;20196;-59
2023/08/22 08:27:52;;;;;;;1999.90;999.90;;;;;;;44.09;42.27;95687.31;5067050;28;20170;-60
2023/08/22 08:30:17;;;;;;;1999.90;999.90;;;;;;;43.37;43.86;95687.41;5066902;28;20166;-60
2023/08/22 08:32:42;;;;;;;1999.90;999.90;;;;;;;43.07;45.77;95683.19;5067008;28;20181;-60
2023/08/22 08:35:08;;;;;;;1999.90;999.90;;;;;;;42.89;45.41;95684.78;5066378;28;20174;-59
2023/08/22 08:37:33;;;;;;;1999.90;999.90;;;;;;;42.60;45.49;95678.38;5066398;28;20166;-59
2023/08/22 08:39:58;;;;;;;1999.90;999.90;;;;;;;42.67;45.11;95679.59;5066185;28;20166;-59
2023/08/22 08:42:24;;;;;;;1999.90;999.90;;;;;;;42.73;46.49;95677.91;5066057;28;20240;-59
2023/08/22 08:44:50;;;;;;;1999.90;999.90;;;;;;;43.21;46.34;95669.78;5066155;28;20173;-59
2023/08/22 08:47:16;;;;;;;1999.90;999.90;;;;;;;42.90;45.84;95674.81;5066137;28;20182;-59
2023/08/22 08:49:41;;;;;;;1999.90;999.90;;;;;;;43.11;45.99;95671.97;5066077;28;20259;-60
2023/08/22 08:52:08;;;;;;;1999.90;999.90;;;;;;;43.22;45.11;95677.03;5066547;28;20229;-59
2023/08/22 08:54:34;;;;;;;1999.90;999.90;;;;;;;43.80;44.77;95683.91;5065928;28;20170;-60
2023/08/22 08:57:00;;;;;;;1999.90;999.90;;;;;;;43.06;45.74;95684.56;5065911;28;20172;-59
2023/08/22 08:59:27;;;;;;;1999.90;999.90;;;;;;;44.51;41.01;95680.66;5065962;28;20284;-59
2023/08/22 09:01:53;;;;;;;1999.90;999.90;;;;;;;44.26;41.50;95689.91;5065427;28;20197;-60
2023/08/22 09:04:19;;;;;;;1999.90;999.90;;;;;;;43.75;43.06;95681.38;5066421;28;20190;-60
2023/08/22 09:06:46;;;;;;;1999.90;999.90;;;;;;;43.26;43.82;95676.59;5065735;28;20173;-60
2023/08/22 09:09:12;;;;;;;1999.90;999.90;;;;;;;43.07;45.36;95677.44;5066205;28;20176;-59
2023/08/22 09:11:46;;;;;;;1999.90;999.90;;;;;;;43.69;43.35;95673.09;5065538;28;20325;-60
2023/08/22 09:14:12;;;;;;;1999.90;999.90;;;;;;;43.19;43.85;95678.28;5066250;28;20154;-59
2023/08/22 09:16:37;;;;;;;1999.90;999.90;;;;;;;44.05;42.27;95684.16;5065482;28;20162;-60
2023/08/22 09:19:03;;;;;;;1999.90;999.90;;;;;;;43.87;42.84;95670.72;5066014;28;20177;-60
2023/08/22 09:21:29;;;;;;;1999.90;999.90;;;;;;;43.36;45.12;95674.41;5065868;28;20190;-60
2023/08/22 09:24:05;;;;;;;1999.90;999.90;;;;;;;44.08;43.77;95680.03;5065466;28;20166;-60
2023/08/22 09:26:31;;;;;;;1999.90;999.90;;;;;;;43.20;44.83;95670.41;5065392;28;20161;-60
2023/08/22 09:28:56;;;;;;;1999.90;999.90;;;;;;;43.78;43.12;95675.16;5065552;28;20168;-60
2023/08/22 09:31:23;;;;;;;1999.90;999.90;;;;;;;43.55;43.55;95675.00;5065448;28;20162;-60
2023/08/22 09:33:48;;;;;;;1999.90;999.90;;;;;;;43.13;43.42;95675.00;5066018;28;20249;-60
2023/08/22 09:36:21;;;;;;;1999.90;999.90;;;;;;;43.63;43.48;95669.81;5064931;28;20162;-60
2023/08/22 09:38:57;;;;;;;1999.90;999.90;;;;;;;43.58;43.21;95673.78;5065072;28;20162;-59
2023/08/22 09:41:24;;;;;;;1999.90;999.90;;;;;;;43.03;44.94;95671.41;5065486;28;20189;-60
2023/08/22 09:44:00;;;;;;;1999.90;999.90;;;;;;;43.84;43.85;95666.91;5065281;28;20265;-59
2023/08/22 09:46:27;;;;;;;1999.90;999.90;;;;;;;44.23;41.98;95668.09;5065636;28;20166;-60
2023/08/22 09:48:55;;;;;;;1999.90;999.90;;;;;;;43.92;42.66;95664.59;5065513;28;20226;-60
2023/08/22 09:51:20;;;;;;;1999.90;999.90;;;;;;;43.29;44.96;95673.22;5064978;28;20166;-60
2023/08/22 09:53:59;;;;;;;1999.90;999.90;;;;;;;43.53;43.85;95660.50;5064895;28;20181;-60
2023/08/22 09:56:25;;;;;;;1999.90;999.90;;;;;;;43.08;45.21;95655.94;5065338;28;20212;-60
2023/08/22 09:58:52;;;;;;;1999.90;999.90;;;;;;;43.78;43.33;95666.50;5064930;28;20165;-59
2023/08/22 10:01:19;;;;;;;1999.90;999.90;;;;;;;44.64;40.81;95659.16;5064343;28;20217;-60
2023/08/22 10:03:47;;;;;;;1999.90;999.90;;;;;;;43.18;45.27;95665.25;5065254;28;20162;-61
2023/08/22 10:06:14;;;;;;;1999.90;999.90;;;;;;;42.81;45.50;95661.22;5064651;28;20203;-60
2023/08/22 10:08:46;;;;;;;1999.90;999.90;;;;;;;42.30;47.26;95653.22;5064602;28;20162;-60
2023/08/22 10:11:13;;;;;;;1999.90;999.90;;;;;;;42.76;46.31;95655.78;5065241;28;20162;-60
2023/08/22 10:13:40;;;;;;;1999.90;999.90;;;;;;;43.59;43.47;95649.41;5064712;28;20166;-60
2023/08/22 10:16:06;;;;;;;1999.90;999.90;;;;;;;43.66;43.99;95651.28;5064502;28;20192;-60
2023/08/22 10:18:31;;;;;;;1999.90;999.90;;;;;;;44.34;41.65;95646.41;5064997;28;20169;-60
2023/08/22 10:20:57;;;;;;;1999.90;999.90;;;;;;;43.97;40.25;95639.66;5064760;28;20261;-60
2023/08/22 10:23:51;;;;;;;1999.90;999.90;;;;;;;43.67;41.43;95641.28;5064968;28;20276;-61
2023/08/22 10:26:16;;;;;;;1999.90;999.90;;;;;;;42.86;43.46;95640.00;5064341;28;20166;-60
2023/08/22 10:28:42;;;;;;;1999.90;999.90;;;;;;;43.04;44.58;95641.25;5064696;28;20172;-59
2023/08/22 10:31:07;;;;;;;1999.90;999.90;;;;;;;42.63;44.43;95644.78;5064698;28;20168;-60
2023/08/22 10:33:33;;;;;;;1999.90;999.90;;;;;;;42.55;45.08;95636.34;5064128;28;20166;-60
2023/08/22 10:36:15;;;;;;;1999.90;999.90;;;;;;;42.81;44.75;95638.19;5064161;28;20166;-60
2023/08/22 10:38:51;;;;;;;1999.90;999.90;;;;;;;43.45;43.05;95642.69;5064717;28;20236;-60
2023/08/22 10:41:20;;;;;;;1999.90;999.90;;;;;;;42.33;45.74;95634.75;5064363;28;20248;-60
2023/08/22 10:43:46;;;;;;;1999.90;999.90;;;;;;;41.16;49.54;95624.53;5063272;28;20212;-60
2023/08/22 10:46:11;;;;;;;1999.90;999.90;;;;;;;42.48;46.91;95628.66;5064563;28;20170;-60